createdAt,value
2019-03-26T00:02:17.293Z,9.73
2019-03-26T00:04:48.721Z,9.13
2019-03-26T00:07:21.103Z,9.10
2019-03-26T00:09:52.628Z,10.17
2019-03-26T00:12:24.054Z,9.77
2019-03-26T00:14:55.506Z,10.10
2019-03-26T00:17:29.874Z,12.40
2019-03-26T00:20:01.536Z,11.83
2019-03-26T00:22:32.871Z,11.80
2019-03-26T00:25:05.649Z,9.77
2019-03-26T00:27:38.018Z,10.00
2019-03-26T00:30:09.453Z,10.43
2019-03-26T00:32:40.880Z,10.70
2019-03-26T00:35:12.624Z,10.57
2019-03-26T00:37:44.026Z,11.43
2019-03-26T00:40:16.424Z,11.60
2019-03-26T00:42:47.856Z,12.03
2019-03-26T00:45:19.191Z,10.03
2019-03-26T00:47:50.519Z,10.90
2019-03-26T00:50:21.950Z,9.07
2019-03-26T00:52:53.383Z,10.83
2019-03-26T00:55:24.810Z,11.97
2019-03-26T00:57:56.144Z,10.37
2019-03-26T01:00:42.573Z,12.00
2019-03-26T01:03:13.910Z,10.57
2019-03-26T01:05:45.717Z,10.87
2019-03-26T01:08:17.037Z,11.10
2019-03-26T01:10:48.367Z,11.30
2019-03-26T01:13:19.681Z,9.60
2019-03-26T01:15:51.159Z,10.80
2019-03-26T01:18:22.479Z,11.07
2019-03-26T01:20:53.809Z,9.10
2019-03-26T01:23:25.141Z,11.27
2019-03-26T01:25:56.669Z,10.47
2019-03-26T01:28:27.989Z,11.00
2019-03-26T01:30:59.317Z,10.43
2019-03-26T01:33:30.633Z,9.47
2019-03-26T01:36:03.026Z,10.13
2019-03-26T01:38:34.557Z,9.43
2019-03-26T01:41:05.883Z,8.80
2019-03-26T01:43:37.503Z,9.57
2019-03-26T01:46:08.921Z,8.97
2019-03-26T01:48:40.238Z,9.43
2019-03-26T01:51:11.558Z,8.07
2019-03-26T01:53:42.972Z,8.47
2019-03-26T01:56:14.303Z,8.60
2019-03-26T01:58:45.619Z,8.80
2019-03-26T02:01:16.940Z,9.10
2019-03-26T02:03:48.451Z,9.03
2019-03-26T02:06:19.772Z,9.93
2019-03-26T02:08:51.393Z,10.23
2019-03-26T02:11:22.717Z,10.13
2019-03-26T02:13:54.712Z,10.73
2019-03-26T02:16:26.042Z,9.30
2019-03-26T02:18:57.370Z,10.40
2019-03-26T02:21:31.411Z,8.90
2019-03-26T02:24:02.755Z,10.70
2019-03-26T02:26:34.079Z,11.60
2019-03-26T02:29:05.402Z,11.90
2019-03-26T02:31:36.729Z,12.73
2019-03-26T02:34:08.048Z,9.50
2019-03-26T02:36:40.267Z,9.70
2019-03-26T02:39:11.663Z,9.97
2019-03-26T02:41:42.994Z,9.07
2019-03-26T02:44:14.416Z,9.60
2019-03-26T02:46:45.736Z,9.63
2019-03-26T02:49:17.073Z,8.23
2019-03-26T02:51:48.400Z,9.40
2019-03-26T02:54:19.711Z,9.60
2019-03-26T02:56:51.136Z,10.00
2019-03-26T02:59:22.471Z,10.33
2019-03-26T03:01:53.869Z,10.13
2019-03-26T03:04:25.532Z,9.23
2019-03-26T03:06:56.893Z,9.87
2019-03-26T03:09:28.214Z,10.77
2019-03-26T03:11:59.917Z,9.77
2019-03-26T03:14:31.241Z,9.20
2019-03-26T03:17:02.560Z,7.53
2019-03-26T03:19:33.880Z,10.47
2019-03-26T03:22:05.480Z,7.73
2019-03-26T03:24:36.963Z,9.83
2019-03-26T03:27:08.290Z,10.27
2019-03-26T03:29:40.787Z,10.33
2019-03-26T03:32:12.126Z,10.63
2019-03-26T03:34:43.446Z,8.50
2019-03-26T03:37:14.771Z,10.87
2019-03-26T03:39:46.103Z,10.80
2019-03-26T03:42:17.427Z,10.10
2019-03-26T03:44:48.766Z,10.93
2019-03-26T03:47:20.082Z,9.13
2019-03-26T03:49:51.411Z,10.27
2019-03-26T03:52:22.729Z,11.53
2019-03-26T03:54:54.154Z,10.03
2019-03-26T03:57:25.750Z,10.53
2019-03-26T03:59:57.078Z,9.87
2019-03-26T04:02:28.407Z,10.97
2019-03-26T04:04:59.731Z,8.37
2019-03-26T04:07:31.145Z,9.93
2019-03-26T04:10:02.487Z,10.20
2019-03-26T04:12:33.798Z,9.67
2019-03-26T04:15:07.072Z,10.57
2019-03-26T04:17:38.388Z,8.97
2019-03-26T04:20:21.952Z,11.23
2019-03-26T04:22:53.384Z,10.57
2019-03-26T04:25:24.707Z,10.53
2019-03-26T04:27:56.037Z,11.57
2019-03-26T04:30:31.767Z,10.90
2019-03-26T04:33:04.359Z,10.07
2019-03-26T04:35:35.777Z,9.07
2019-03-26T04:38:07.103Z,13.43
2019-03-26T04:40:38.733Z,12.13
2019-03-26T04:43:10.052Z,12.70
2019-03-26T04:45:41.582Z,13.07
2019-03-26T04:48:12.916Z,11.37
2019-03-26T04:50:44.245Z,12.90
2019-03-26T04:53:15.568Z,11.83
2019-03-26T04:55:47.097Z,12.20
2019-03-26T04:58:18.421Z,11.37
2019-03-26T05:00:50.050Z,12.43
2019-03-26T05:03:21.378Z,15.07
2019-03-26T05:05:52.895Z,11.23
2019-03-26T05:08:24.224Z,13.27
2019-03-26T05:10:55.557Z,13.47
2019-03-26T05:13:26.981Z,13.57
2019-03-26T05:15:58.712Z,14.80
2019-03-26T05:18:30.040Z,14.13
2019-03-26T05:21:01.366Z,16.30
2019-03-26T05:23:32.693Z,14.93
2019-03-26T05:26:04.024Z,17.07
2019-03-26T05:28:35.345Z,14.70
2019-03-26T05:31:09.458Z,15.50
2019-03-26T05:33:43.326Z,16.37
2019-03-26T05:36:14.649Z,16.10
2019-03-26T05:38:45.973Z,18.70
2019-03-26T05:41:17.307Z,19.50
2019-03-26T05:43:48.628Z,22.27
2019-03-26T05:46:19.959Z,17.93
2019-03-26T05:48:51.283Z,18.83
2019-03-26T05:51:22.611Z,20.60
2019-03-26T05:53:53.942Z,21.40
2019-03-26T05:56:25.291Z,26.60
2019-03-26T05:58:56.602Z,25.70
2019-03-26T06:01:27.938Z,22.37
2019-03-26T06:03:59.269Z,20.20
2019-03-26T06:06:30.799Z,20.57
2019-03-26T06:09:02.326Z,22.70
2019-03-26T06:11:33.919Z,16.77
2019-03-26T06:14:05.254Z,19.13
2019-03-26T06:16:38.567Z,24.23
2019-03-26T06:19:09.635Z,20.20
2019-03-26T06:21:41.078Z,17.00
2019-03-26T06:24:12.503Z,16.73
2019-03-26T06:26:44.040Z,17.27
2019-03-26T06:29:15.375Z,17.07
2019-03-26T06:31:46.730Z,16.00
2019-03-26T06:34:18.357Z,15.33
2019-03-26T06:36:49.696Z,14.47
2019-03-26T06:39:21.220Z,11.80
2019-03-26T06:41:52.649Z,13.20
2019-03-26T06:44:23.971Z,14.83
2019-03-26T06:46:55.303Z,17.00
2019-03-26T06:49:27.900Z,20.73
2019-03-26T06:52:00.913Z,14.30
2019-03-26T06:54:32.232Z,11.17
2019-03-26T06:57:04.000Z,15.80
2019-03-26T06:59:35.325Z,14.50
2019-03-26T07:02:06.750Z,12.57
2019-03-26T07:04:47.881Z,12.57
2019-03-26T07:07:31.062Z,11.27
2019-03-26T07:09:52.236Z,10.97
2019-03-26T07:12:23.976Z,11.40
2019-03-26T07:14:55.426Z,9.73
2019-03-26T07:17:27.476Z,10.67
2019-03-26T07:19:58.900Z,12.50
2019-03-26T07:22:30.249Z,12.33
2019-03-26T07:25:01.591Z,9.97
2019-03-26T07:27:32.910Z,10.57
2019-03-26T07:30:07.025Z,10.87
2019-03-26T07:32:38.366Z,8.37
2019-03-26T07:35:09.751Z,18.07
2019-03-26T07:37:47.368Z,14.60
2019-03-26T07:40:20.526Z,14.63
2019-03-26T07:42:51.859Z,23.40
2019-03-26T07:45:23.177Z,15.77
2019-03-26T07:47:54.714Z,16.70
2019-03-26T07:50:26.038Z,20.23
2019-03-26T07:52:57.378Z,15.03
2019-03-26T07:55:29.019Z,17.27
2019-03-26T07:58:00.388Z,13.20
2019-03-26T08:00:35.750Z,13.57
2019-03-26T08:03:07.551Z,12.70
2019-03-26T08:05:38.913Z,12.30
2019-03-26T08:08:10.239Z,11.80
2019-03-26T08:10:41.571Z,10.23
2019-03-26T08:13:12.934Z,13.37
2019-03-26T08:15:44.272Z,11.80
2019-03-26T08:18:15.590Z,12.40
2019-03-26T08:20:47.223Z,12.27
2019-03-26T08:23:18.570Z,12.83
2019-03-26T08:25:49.892Z,11.03
2019-03-26T08:28:22.398Z,11.57
2019-03-26T08:30:54.904Z,13.00
2019-03-26T08:33:26.239Z,10.80
2019-03-26T08:35:57.762Z,11.00
2019-03-26T08:38:33.287Z,12.03
2019-03-26T08:41:03.152Z,11.00
2019-03-26T08:43:34.485Z,9.70
2019-03-26T08:46:05.868Z,13.20
2019-03-26T08:48:37.201Z,13.03
2019-03-26T08:51:08.628Z,10.90
2019-03-26T08:53:40.059Z,10.33
2019-03-26T08:56:11.391Z,12.40
2019-03-26T08:58:43.991Z,14.13
2019-03-26T09:01:15.309Z,12.53
2019-03-26T09:03:46.841Z,12.07
2019-03-26T09:06:18.183Z,10.83
2019-03-26T09:08:49.719Z,10.63
2019-03-26T09:11:21.037Z,12.67
2019-03-26T09:13:52.671Z,12.10
2019-03-26T09:16:25.264Z,15.33
2019-03-26T09:18:56.588Z,9.77
2019-03-26T09:21:27.908Z,9.47
2019-03-26T09:23:59.251Z,16.20
2019-03-26T09:26:30.572Z,14.70
2019-03-26T09:29:01.931Z,10.43
2019-03-26T09:31:33.245Z,8.10
2019-03-26T09:34:04.576Z,7.17
2019-03-26T09:36:36.009Z,7.80
2019-03-26T09:39:08.811Z,7.83
2019-03-26T09:41:40.345Z,7.30
2019-03-26T09:44:11.655Z,6.93
2019-03-26T09:46:42.987Z,7.27
2019-03-26T09:49:16.149Z,8.50
2019-03-26T09:51:47.572Z,6.63
2019-03-26T09:54:19.038Z,8.87
2019-03-26T09:56:50.486Z,15.50
2019-03-26T09:59:24.693Z,6.53
2019-03-26T10:01:56.269Z,6.47
2019-03-26T10:04:27.787Z,7.97
2019-03-26T10:07:02.511Z,7.60
2019-03-26T10:09:33.894Z,8.30
2019-03-26T10:12:07.157Z,6.20
2019-03-26T10:14:39.729Z,7.70
2019-03-26T10:17:11.526Z,6.30
2019-03-26T10:19:42.948Z,7.80
2019-03-26T10:22:14.441Z,6.17
2019-03-26T10:24:45.757Z,6.47
2019-03-26T10:27:17.080Z,7.33
2019-03-26T10:29:48.416Z,8.13
2019-03-26T10:32:19.738Z,9.87
2019-03-26T10:34:51.055Z,7.27
2019-03-26T10:37:22.372Z,6.80
2019-03-26T10:39:53.699Z,6.03
2019-03-26T10:42:25.119Z,6.80
2019-03-26T10:44:56.841Z,7.47
2019-03-26T10:47:28.164Z,8.43
2019-03-26T10:49:59.784Z,9.37
2019-03-26T10:52:34.392Z,8.30
2019-03-26T10:55:06.177Z,7.27
2019-03-26T10:57:37.501Z,6.37
2019-03-26T11:00:08.918Z,5.37
2019-03-26T11:02:40.264Z,5.33
2019-03-26T11:05:11.573Z,6.37
2019-03-26T11:07:42.986Z,4.77
2019-03-26T11:10:15.358Z,5.00
2019-03-26T11:12:46.677Z,4.43
2019-03-26T11:15:18.298Z,5.20
2019-03-26T11:17:49.617Z,5.37
2019-03-26T11:20:22.312Z,5.90
2019-03-26T11:22:53.706Z,5.07
2019-03-26T11:25:25.027Z,21.87
2019-03-26T11:27:56.621Z,6.47
2019-03-26T11:30:27.940Z,7.10
2019-03-26T11:32:59.261Z,7.87
2019-03-26T11:35:30.579Z,5.37
2019-03-26T11:38:02.317Z,8.30
2019-03-26T11:40:33.640Z,7.40
2019-03-26T11:43:04.963Z,7.30
2019-03-26T11:45:36.281Z,7.77
2019-03-26T11:48:09.261Z,7.20
2019-03-26T11:50:40.781Z,4.27
2019-03-26T11:53:12.205Z,6.30
2019-03-26T11:55:43.525Z,6.50
2019-03-26T11:58:15.123Z,9.17
2019-03-26T12:00:46.469Z,6.03
2019-03-26T12:03:18.003Z,5.57
2019-03-26T12:05:49.407Z,3.20
2019-03-26T12:08:20.743Z,4.30
2019-03-26T12:10:52.065Z,5.77
2019-03-26T12:13:23.503Z,3.97
2019-03-26T12:15:54.915Z,4.03
2019-03-26T12:18:26.257Z,4.37
2019-03-26T12:20:57.622Z,3.47
2019-03-26T12:23:28.966Z,3.27
2019-03-26T12:26:00.500Z,4.63
2019-03-26T12:28:31.835Z,6.10
2019-03-26T12:31:04.017Z,5.97
2019-03-26T12:33:36.430Z,4.03
2019-03-26T12:36:07.692Z,4.67
2019-03-26T12:38:39.236Z,29.30
2019-03-26T12:41:10.561Z,4.00
2019-03-26T12:43:42.174Z,3.67
2019-03-26T12:46:13.582Z,4.83
2019-03-26T12:48:44.915Z,6.67
2019-03-26T12:51:16.232Z,8.43
2019-03-26T12:53:47.596Z,4.77
2019-03-26T12:56:18.921Z,5.60
2019-03-26T12:58:50.234Z,2.83
2019-03-26T13:01:21.545Z,4.33
2019-03-26T13:03:52.858Z,3.87
2019-03-26T13:06:24.171Z,2.90
2019-03-26T13:08:55.540Z,3.00
2019-03-26T13:11:26.883Z,4.37
2019-03-26T13:13:59.909Z,3.63
2019-03-26T13:19:20.741Z,5.50
2019-03-26T13:21:52.364Z,3.50
2019-03-26T13:24:24.734Z,3.73
2019-03-26T13:27:00.074Z,4.97
2019-03-26T13:29:31.395Z,4.60
2019-03-26T13:32:02.720Z,3.87
2019-03-26T13:34:34.048Z,3.33
2019-03-26T13:37:05.656Z,2.70
2019-03-26T13:39:43.077Z,3.60
2019-03-26T13:42:10.082Z,3.00
2019-03-26T13:44:42.971Z,2.80
2019-03-26T13:47:16.196Z,3.00
2019-03-26T13:49:49.395Z,2.80
2019-03-26T13:52:20.705Z,3.80
2019-03-26T13:54:52.027Z,5.70
2019-03-26T13:57:23.353Z,4.60
2019-03-26T13:59:55.036Z,5.73
2019-03-26T14:02:26.653Z,4.10
2019-03-26T14:04:58.377Z,5.17
2019-03-26T14:07:31.131Z,4.40
2019-03-26T14:10:02.455Z,4.70
2019-03-26T14:12:34.444Z,5.23
2019-03-26T14:15:07.340Z,5.93
2019-03-26T14:17:38.659Z,4.13
2019-03-26T14:20:14.591Z,6.70
2019-03-26T14:22:45.964Z,4.53
2019-03-26T14:25:17.683Z,5.60
2019-03-26T14:27:49.435Z,6.13
2019-03-26T14:30:36.370Z,9.63
2019-03-26T14:33:08.014Z,23.97
2019-03-26T14:35:39.529Z,15.73
2019-03-26T14:38:10.909Z,7.77
2019-03-26T14:40:53.893Z,5.67
2019-03-26T14:43:15.377Z,8.97
2019-03-26T14:45:48.315Z,10.10
2019-03-26T14:48:21.409Z,4.70
2019-03-26T14:51:04.126Z,12.60
2019-03-26T14:53:40.019Z,6.07
2019-03-26T14:56:16.356Z,9.10
2019-03-26T14:58:48.661Z,6.60
2019-03-26T15:01:21.742Z,8.20
2019-03-26T15:03:57.289Z,13.10
2019-03-26T15:06:30.055Z,19.20
2019-03-26T15:09:12.956Z,17.60
2019-03-26T15:11:57.529Z,23.20
2019-03-26T15:14:36.643Z,21.13
2019-03-26T15:17:11.010Z,37.43
2019-03-26T15:19:42.350Z,16.27
2019-03-26T15:22:13.679Z,19.60
2019-03-26T15:24:45.087Z,9.60
2019-03-26T15:27:17.780Z,9.57
2019-03-26T15:29:49.111Z,11.00
2019-03-26T15:32:20.439Z,13.87
2019-03-26T15:34:51.779Z,16.43
2019-03-26T15:37:24.384Z,22.90
2019-03-26T15:39:55.814Z,5.60
2019-03-26T15:42:27.279Z,11.60
2019-03-26T15:44:58.616Z,12.67
2019-03-26T15:47:29.973Z,11.93
2019-03-26T15:50:01.318Z,16.07
2019-03-26T15:52:35.005Z,14.33
2019-03-26T15:55:14.589Z,15.53
2019-03-26T15:57:56.290Z,14.97
2019-03-26T16:00:33.024Z,18.40
2019-03-26T16:03:05.590Z,20.40
2019-03-26T16:05:42.278Z,16.67
2019-03-26T16:08:13.904Z,31.13
2019-03-26T16:10:45.243Z,19.33
2019-03-26T16:13:16.602Z,13.73
2019-03-26T16:15:47.935Z,15.67
2019-03-26T16:18:20.392Z,39.50
2019-03-26T16:20:51.746Z,46.53
2019-03-26T16:23:25.092Z,70.13
2019-03-26T16:25:56.128Z,91.30
2019-03-26T16:28:27.470Z,47.67
2019-03-26T16:31:06.842Z,44.23
2019-03-26T16:33:38.448Z,37.80
2019-03-26T16:36:10.919Z,20.03
2019-03-26T16:38:42.244Z,22.90
2019-03-26T16:41:14.312Z,13.93
2019-03-26T16:43:48.215Z,43.00
2019-03-26T16:46:22.472Z,8.77
2019-03-26T16:48:55.460Z,4.70
2019-03-26T16:51:26.828Z,12.97
2019-03-26T16:53:58.167Z,34.90
2019-03-26T16:56:29.551Z,17.27
2019-03-26T16:59:00.867Z,37.67
2019-03-26T17:01:32.642Z,23.43
2019-03-26T17:04:03.985Z,89.90
2019-03-26T17:06:35.361Z,50.47
2019-03-26T17:09:07.977Z,26.30
2019-03-26T17:11:39.316Z,15.60
2019-03-26T17:14:11.518Z,16.00
2019-03-26T17:16:42.882Z,10.33
2019-03-26T17:19:14.895Z,12.37
2019-03-26T17:21:47.488Z,10.40
2019-03-26T17:24:19.043Z,18.13
2019-03-26T17:26:50.410Z,23.63
2019-03-26T17:29:21.800Z,12.13
2019-03-26T17:31:55.862Z,21.47
2019-03-26T17:34:27.376Z,26.30
2019-03-26T17:36:58.763Z,19.47
2019-03-26T17:39:31.613Z,31.43
2019-03-26T17:42:16.215Z,15.17
2019-03-26T17:44:36.495Z,18.90
2019-03-26T17:47:07.988Z,100.27
2019-03-26T17:49:41.705Z,51.00
2019-03-26T17:52:13.383Z,13.40
2019-03-26T17:54:44.723Z,45.27
2019-03-26T17:57:16.084Z,40.67
2019-03-26T17:59:50.166Z,7.83
2019-03-26T18:02:21.539Z,10.97
2019-03-26T18:04:52.912Z,11.13
2019-03-26T18:07:24.970Z,14.33
2019-03-26T18:09:56.608Z,12.10
2019-03-26T18:12:30.991Z,12.90
2019-03-26T18:15:05.023Z,8.57
2019-03-26T18:17:36.428Z,9.13
2019-03-26T18:20:09.373Z,9.00
2019-03-26T18:22:40.798Z,12.90
2019-03-26T18:25:12.334Z,6.73
2019-03-26T18:27:43.808Z,9.17
2019-03-26T18:30:15.367Z,10.73
2019-03-26T18:32:49.191Z,13.87
2019-03-26T18:35:21.826Z,13.37
2019-03-26T18:37:53.175Z,8.17
2019-03-26T18:40:25.008Z,6.43
2019-03-26T18:42:58.914Z,6.50
2019-03-26T18:45:30.471Z,2.63
2019-03-26T18:48:09.011Z,4.40
2019-03-26T18:50:50.911Z,3.90
2019-03-26T18:53:23.667Z,5.63
2019-03-26T18:56:04.238Z,5.97
2019-03-26T18:58:45.230Z,9.20
2019-03-26T19:01:27.404Z,6.93
2019-03-26T19:04:03.189Z,5.50
2019-03-26T19:06:41.298Z,6.60
2019-03-26T19:09:15.207Z,14.97
2019-03-26T19:11:46.952Z,7.03
2019-03-26T19:14:21.474Z,11.20
2019-03-26T19:16:53.410Z,53.97
2019-03-26T19:19:29.844Z,6.03
2019-03-26T19:22:01.215Z,6.70
2019-03-26T19:24:34.303Z,15.63
2019-03-26T19:27:06.600Z,12.53
2019-03-26T19:29:40.313Z,8.70
2019-03-26T19:32:13.325Z,5.93
2019-03-26T19:34:46.831Z,6.70
2019-03-26T19:37:20.020Z,5.00
2019-03-26T19:39:54.531Z,4.97
2019-03-26T19:42:26.484Z,5.13
2019-03-26T19:44:59.450Z,8.33
2019-03-26T19:47:30.943Z,12.10
2019-03-26T19:50:02.723Z,5.47
2019-03-26T19:52:35.242Z,7.90
2019-03-26T19:55:08.120Z,9.93
2019-03-26T19:57:46.014Z,5.90
2019-03-26T20:00:19.650Z,8.50
2019-03-26T20:02:52.626Z,7.70
2019-03-26T20:05:23.974Z,7.80
2019-03-26T20:07:55.315Z,9.63
2019-03-26T20:10:29.861Z,12.57
2019-03-26T20:13:03.060Z,11.83
2019-03-26T20:15:37.388Z,9.83
2019-03-26T20:18:11.905Z,8.83
2019-03-26T20:20:45.126Z,9.50
2019-03-26T20:23:24.843Z,8.00
2019-03-26T20:25:52.162Z,4.00
2019-03-26T20:28:28.923Z,4.27
2019-03-26T20:31:01.791Z,4.77
2019-03-26T20:33:33.175Z,3.33
2019-03-26T20:36:06.381Z,4.33
2019-03-26T20:38:43.072Z,3.33
2019-03-26T20:41:16.231Z,3.17
2019-03-26T20:43:51.361Z,3.73
2019-03-26T20:46:22.693Z,2.80
2019-03-26T20:48:54.029Z,4.13
2019-03-26T20:51:34.351Z,3.90
2019-03-26T20:54:07.605Z,3.63
2019-03-26T20:56:40.826Z,4.03
2019-03-26T20:59:12.074Z,5.50
2019-03-26T21:01:45.672Z,5.77
2019-03-26T21:04:20.418Z,5.87
2019-03-26T21:06:58.172Z,6.20
2019-03-26T21:09:31.081Z,6.00
2019-03-26T21:12:02.627Z,6.23
2019-03-26T21:14:33.985Z,6.90
2019-03-26T21:17:05.411Z,8.13
2019-03-26T21:19:37.123Z,8.37
2019-03-26T21:22:12.756Z,8.77
2019-03-26T21:24:47.155Z,9.73
2019-03-26T21:27:23.239Z,11.93
2019-03-26T21:30:09.764Z,10.20
2019-03-26T21:32:31.143Z,13.43
2019-03-26T21:35:07.367Z,16.03
2019-03-26T21:37:42.814Z,26.83
2019-03-26T21:40:15.795Z,35.80
2019-03-26T21:42:47.904Z,57.43
2019-03-26T21:45:29.971Z,64.20
2019-03-26T21:48:03.927Z,30.17
2019-03-26T21:50:37.927Z,21.67
2019-03-26T21:53:13.349Z,21.13
2019-03-26T21:55:48.744Z,22.57
2019-03-26T21:58:21.667Z,21.67
2019-03-26T22:00:56.044Z,22.37
2019-03-26T22:03:32.761Z,21.77
2019-03-26T22:06:04.098Z,19.93
2019-03-26T22:08:38.947Z,21.63
2019-03-26T22:11:11.749Z,19.73
2019-03-26T22:13:45.900Z,20.70
2019-03-26T22:16:22.977Z,19.43
2019-03-26T22:18:57.866Z,18.87
2019-03-26T22:21:29.191Z,18.53
2019-03-26T22:24:00.542Z,19.10
2019-03-26T22:26:33.519Z,17.50
2019-03-26T22:29:04.841Z,19.30
2019-03-26T22:31:36.188Z,16.43
2019-03-26T22:34:08.109Z,15.80
2019-03-26T22:36:39.556Z,15.73
2019-03-26T22:39:12.138Z,15.70
2019-03-26T22:41:43.796Z,14.97
2019-03-26T22:44:15.222Z,12.87
2019-03-26T22:46:46.580Z,13.97
2019-03-26T22:49:18.208Z,13.40
2019-03-26T22:51:49.582Z,14.93
2019-03-26T22:54:20.951Z,29.17
2019-03-26T22:56:52.319Z,20.97
2019-03-26T22:59:27.009Z,14.87
2019-03-26T23:01:59.761Z,12.50
2019-03-26T23:04:31.108Z,11.43
2019-03-26T23:07:03.027Z,12.33
2019-03-26T23:09:34.345Z,11.20
2019-03-26T23:12:05.710Z,21.17
2019-03-26T23:14:45.084Z,24.47
2019-03-26T23:17:10.322Z,37.23
2019-03-26T23:19:41.629Z,42.90
2019-03-26T23:22:13.180Z,31.63
2019-03-26T23:24:44.520Z,28.97
2019-03-26T23:27:15.858Z,43.67
2019-03-26T23:29:47.201Z,25.60
2019-03-26T23:32:19.189Z,38.70
2019-03-26T23:34:50.715Z,43.30
2019-03-26T23:37:22.070Z,39.23
2019-03-26T23:39:54.501Z,38.17
2019-03-26T23:42:26.330Z,35.50
2019-03-26T23:44:58.815Z,38.67
2019-03-26T23:47:30.503Z,34.20
2019-03-26T23:50:01.834Z,42.80
2019-03-26T23:52:33.391Z,46.40
2019-03-26T23:55:06.802Z,56.37
2019-03-26T23:57:38.475Z,57.03
